createdAt,value
2018-01-04T00:41:27.730Z,7.90
2018-01-04T00:44:06.972Z,7.30
2018-01-04T00:58:54.252Z,7.20
2018-01-04T01:01:34.122Z,7.20
2018-01-04T01:04:23.584Z,7.20
2018-01-04T01:06:58.500Z,7.20
2018-01-04T01:09:35.146Z,7.20
2018-01-04T01:15:17.715Z,7.20
2018-01-04T01:18:04.254Z,7.20
2018-01-04T01:23:53.140Z,7.00
2018-01-04T01:26:39.183Z,6.90
2018-01-04T01:31:56.036Z,6.70
2018-01-04T01:34:31.235Z,6.70
2018-01-04T01:37:24.579Z,6.70
2018-01-04T01:42:41.422Z,6.50
2018-01-04T01:45:14.707Z,6.50
2018-01-04T01:47:52.941Z,6.50
2018-01-04T01:50:37.660Z,6.40
2018-01-04T01:59:06.496Z,6.40
2018-01-04T02:01:48.004Z,6.40
2018-01-04T02:07:02.532Z,6.20
2018-01-04T02:09:31.800Z,6.30
2018-01-04T02:12:04.794Z,6.30
2018-01-04T02:14:35.334Z,6.20
2018-01-04T02:17:09.427Z,6.20
2018-01-04T02:19:51.718Z,6.20
2018-01-04T02:22:39.407Z,6.20
2018-01-04T02:25:20.422Z,6.10
2018-01-04T02:28:01.000Z,6.20
2018-01-04T02:30:42.602Z,6.10
2018-01-04T02:33:23.077Z,6.20
2018-01-04T02:36:03.366Z,6.20
2018-01-04T02:38:42.883Z,6.10
2018-01-04T02:41:22.253Z,6.20
2018-01-04T02:50:00.323Z,6.20
2018-01-04T02:52:33.659Z,6.20
2018-01-04T02:55:13.331Z,6.20
2018-01-04T02:57:46.041Z,6.10
2018-01-04T03:00:17.164Z,6.20
2018-01-04T03:02:54.529Z,6.20
2018-01-04T03:14:04.110Z,6.50
2018-01-04T03:16:45.194Z,6.50
2018-01-04T03:22:03.220Z,6.50
2018-01-04T03:24:46.407Z,6.60
2018-01-04T03:27:24.943Z,6.60
2018-01-04T03:29:58.242Z,6.60
2018-01-04T03:32:34.075Z,6.70
2018-01-04T03:35:09.764Z,6.70
2018-01-04T03:37:46.323Z,6.70
2018-01-04T03:43:29.382Z,6.80
2018-01-04T03:46:06.568Z,6.80
2018-01-04T03:48:43.449Z,6.90
2018-01-04T03:51:21.699Z,6.90
2018-01-04T03:54:04.423Z,7.00
2018-01-04T03:56:47.230Z,7.10
2018-01-04T03:59:29.860Z,7.00
2018-01-04T04:02:03.150Z,7.10
2018-01-04T04:04:45.960Z,7.10
2018-01-04T04:07:20.571Z,7.10
2018-01-04T04:09:54.811Z,7.10
2018-01-04T04:12:23.165Z,7.20
2018-01-04T04:14:52.003Z,7.20
2018-01-04T04:17:23.779Z,7.20
2018-01-04T04:19:53.180Z,7.30
2018-01-04T04:22:21.461Z,7.30
2018-01-04T04:24:50.806Z,7.30
2018-01-04T04:27:19.892Z,7.40
2018-01-04T04:29:49.880Z,7.40
2018-01-04T04:32:20.366Z,7.40
2018-01-04T04:35:01.271Z,7.40
2018-01-04T04:40:17.784Z,7.60
2018-01-04T04:45:37.443Z,7.60
2018-01-04T04:48:12.234Z,7.70
2018-01-04T04:50:44.696Z,7.70
2018-01-04T04:53:21.011Z,7.80
2018-01-04T04:55:49.372Z,7.80
2018-01-04T04:58:27.116Z,7.80
2018-01-04T05:01:01.272Z,7.90
2018-01-04T05:03:31.858Z,8.00
2018-01-04T05:06:04.128Z,8.00
2018-01-04T05:11:10.817Z,8.10
2018-01-04T05:13:40.028Z,8.10
2018-01-04T05:16:08.531Z,8.10
2018-01-04T05:18:36.988Z,8.20
2018-01-04T05:21:10.693Z,8.20
2018-01-04T05:23:40.520Z,8.20
2018-01-04T05:26:11.546Z,8.30
2018-01-04T05:28:41.139Z,8.30
2018-01-04T05:31:10.017Z,8.30
2018-01-04T05:33:40.768Z,8.30
2018-01-04T05:36:09.362Z,8.30
2018-01-04T05:38:45.425Z,8.40
2018-01-04T05:41:25.279Z,8.40
2018-01-04T05:43:54.426Z,8.50
2018-01-04T05:46:24.855Z,8.50
2018-01-04T05:48:55.748Z,8.40
2018-01-04T05:51:26.631Z,8.50
2018-01-04T05:53:54.732Z,8.50
2018-01-04T05:56:27.137Z,8.60
2018-01-04T06:01:32.210Z,8.60
2018-01-04T06:04:02.283Z,8.60
2018-01-04T06:06:30.448Z,8.60
2018-01-04T06:08:59.705Z,8.60
2018-01-04T06:11:37.117Z,8.60
2018-01-04T06:14:08.243Z,8.60
2018-01-04T06:16:39.516Z,8.60
2018-01-04T06:19:07.683Z,8.70
2018-01-04T06:21:36.398Z,8.70
2018-01-04T06:24:08.254Z,8.70
2018-01-04T06:26:37.524Z,8.70
2018-01-04T06:29:05.772Z,8.60
2018-01-04T06:34:31.989Z,8.70
2018-01-04T06:37:03.357Z,8.70
2018-01-04T06:39:36.599Z,8.70
2018-01-04T06:44:40.934Z,8.70
2018-01-04T06:47:10.561Z,8.70
2018-01-04T06:49:43.836Z,8.70
2018-01-04T06:52:17.424Z,8.70
2018-01-04T06:54:50.278Z,8.60
2018-01-04T06:57:21.423Z,8.60
2018-01-04T06:59:57.440Z,8.70
2018-01-04T07:02:32.092Z,8.70
2018-01-04T07:05:02.344Z,8.80
2018-01-04T07:07:38.402Z,8.80
2018-01-04T07:10:08.249Z,8.80
2018-01-04T07:12:40.389Z,8.80
2018-01-04T07:15:11.918Z,8.80
2018-01-04T07:17:46.138Z,8.80
2018-01-04T07:20:28.258Z,8.90
2018-01-04T07:22:59.510Z,8.90
2018-01-04T07:25:28.789Z,8.80
2018-01-04T07:27:56.335Z,8.90
2018-01-04T07:30:23.871Z,8.90
2018-01-04T07:32:55.695Z,8.90
2018-01-04T07:35:24.404Z,8.90
2018-01-04T07:37:53.431Z,8.90
2018-01-04T07:40:22.028Z,9.00
2018-01-04T07:42:50.363Z,8.90
2018-01-04T07:45:18.644Z,8.90
2018-01-04T07:47:46.723Z,9.00
2018-01-04T07:50:15.185Z,9.00
2018-01-04T07:52:42.724Z,9.00
2018-01-04T07:55:10.399Z,9.10
2018-01-04T07:57:38.834Z,9.20
2018-01-04T08:00:07.143Z,9.20
2018-01-04T08:02:35.450Z,9.20
2018-01-04T08:05:02.998Z,9.20
2018-01-04T08:07:31.296Z,9.20
2018-01-04T08:09:59.615Z,9.30
2018-01-04T08:12:27.135Z,9.30
2018-01-04T08:14:54.683Z,9.40
2018-01-04T08:17:22.980Z,9.40
2018-01-04T08:19:50.532Z,9.40
2018-01-04T08:22:18.101Z,9.50
2018-01-04T08:24:45.671Z,9.50
2018-01-04T08:27:13.206Z,9.50
2018-01-04T08:29:41.535Z,9.50
2018-01-04T08:32:09.064Z,9.50
2018-01-04T08:34:37.587Z,9.70
2018-01-04T08:37:05.138Z,9.70
2018-01-04T08:39:33.444Z,9.80
2018-01-04T08:42:00.979Z,9.80
2018-01-04T08:44:28.524Z,9.90
2018-01-04T08:46:56.144Z,9.90
2018-01-04T08:49:24.467Z,10.10
2018-01-04T08:51:52.988Z,10.10
2018-01-04T08:54:20.692Z,10.10
2018-01-04T08:56:48.283Z,10.10
2018-01-04T08:59:16.653Z,10.30
2018-01-04T09:01:45.115Z,10.30
2018-01-04T09:04:13.799Z,10.40
2018-01-04T09:06:41.425Z,10.40
2018-01-04T09:09:09.003Z,10.50
2018-01-04T09:11:39.190Z,10.50
2018-01-04T09:14:06.750Z,10.60
2018-01-04T09:16:34.355Z,10.60
2018-01-04T09:19:01.915Z,10.60
2018-01-04T09:21:30.000Z,10.70
2018-01-04T09:23:57.540Z,10.70
2018-01-04T09:26:26.085Z,10.80
2018-01-04T09:28:53.645Z,10.80
2018-01-04T09:31:22.153Z,10.80
2018-01-04T09:33:49.708Z,10.90
2018-01-04T09:36:21.092Z,11.00
2018-01-04T09:38:49.364Z,11.00
2018-01-04T09:41:17.816Z,11.00
2018-01-04T09:43:46.284Z,11.00
2018-01-04T09:46:14.580Z,11.10
2018-01-04T09:48:44.237Z,11.20
2018-01-04T09:51:12.682Z,11.10
2018-01-04T09:53:40.215Z,11.20
2018-01-04T09:56:07.795Z,11.20
2018-01-04T09:58:35.315Z,11.20
2018-01-04T10:01:03.727Z,11.20
2018-01-04T10:03:32.026Z,11.30
2018-01-04T10:06:00.350Z,11.30
2018-01-04T10:08:27.902Z,11.30
2018-01-04T10:10:56.389Z,11.30
2018-01-04T10:13:24.127Z,11.40
2018-01-04T10:15:54.353Z,11.40
2018-01-04T10:18:22.719Z,11.50
2018-01-04T10:20:50.284Z,11.50
2018-01-04T10:23:17.851Z,11.50
2018-01-04T10:25:45.968Z,11.50
2018-01-04T10:28:13.534Z,11.60
2018-01-04T10:30:41.112Z,11.60
2018-01-04T10:33:11.004Z,11.60
2018-01-04T10:35:38.543Z,11.70
2018-01-04T10:38:07.556Z,11.80
2018-01-04T10:40:36.874Z,11.80
2018-01-04T10:43:05.658Z,11.80
2018-01-04T10:45:33.251Z,11.90
2018-01-04T10:48:02.446Z,12.00
2018-01-04T10:50:30.067Z,12.00
2018-01-04T10:52:57.634Z,12.00
2018-01-04T10:55:25.167Z,12.10
2018-01-04T10:57:53.532Z,12.10
2018-01-04T11:00:21.811Z,12.10
2018-01-04T11:02:50.072Z,12.10
2018-01-04T11:05:18.544Z,12.10
2018-01-04T11:07:46.200Z,12.10
2018-01-04T11:10:13.822Z,12.20
2018-01-04T11:12:42.375Z,12.10
2018-01-04T11:15:09.915Z,12.10
2018-01-04T11:17:38.729Z,12.20
2018-01-04T11:20:07.198Z,12.20
2018-01-04T11:22:34.775Z,12.30
2018-01-04T11:25:03.279Z,12.30
2018-01-04T11:27:31.491Z,12.40
2018-01-04T11:29:59.067Z,12.40
2018-01-04T11:32:26.674Z,12.40
2018-01-04T11:34:55.670Z,12.50
2018-01-04T11:37:24.350Z,12.50
2018-01-04T11:39:52.483Z,12.50
2018-01-04T11:42:20.031Z,12.40
2018-01-04T11:44:47.585Z,12.60
2018-01-04T11:47:16.055Z,12.50
2018-01-04T11:49:43.613Z,12.50
2018-01-04T11:52:11.152Z,12.50
2018-01-04T11:54:40.113Z,12.50
2018-01-04T11:57:07.660Z,12.50
2018-01-04T11:59:35.899Z,12.50
2018-01-04T12:02:04.191Z,12.60
2018-01-04T12:04:32.628Z,12.60
2018-01-04T12:07:00.187Z,12.60
2018-01-04T12:09:27.846Z,12.70
2018-01-04T12:11:56.156Z,12.80
2018-01-04T12:14:24.288Z,12.80
2018-01-04T12:16:51.831Z,12.80
2018-01-04T12:19:21.325Z,12.90
2018-01-04T12:21:50.463Z,13.00
2018-01-04T12:24:18.074Z,13.00
2018-01-04T12:26:46.535Z,13.00
2018-01-04T12:29:14.099Z,12.90
2018-01-04T12:31:42.204Z,12.90
2018-01-04T12:34:09.765Z,12.90
2018-01-04T12:36:37.307Z,12.80
2018-01-04T12:39:09.034Z,12.90
2018-01-04T12:41:36.594Z,12.90
2018-01-04T12:44:06.086Z,12.90
2018-01-04T12:46:33.995Z,12.90
2018-01-04T12:49:02.371Z,12.90
2018-01-04T12:51:30.880Z,12.90
2018-01-04T12:53:58.776Z,12.90
2018-01-04T12:56:27.212Z,12.90
2018-01-04T12:58:55.563Z,12.90
2018-01-04T13:01:23.103Z,12.90
2018-01-04T13:03:51.323Z,12.90
2018-01-04T13:06:19.675Z,13.00
2018-01-04T13:08:48.054Z,13.00
2018-01-04T13:11:17.053Z,12.90
2018-01-04T13:13:46.072Z,13.00
2018-01-04T13:16:14.398Z,12.90
2018-01-04T13:18:42.747Z,13.00
2018-01-04T13:21:11.787Z,13.00
2018-01-04T13:23:40.254Z,13.00
2018-01-04T13:26:09.073Z,13.00
2018-01-04T13:28:36.625Z,13.10
2018-01-04T13:31:05.061Z,13.10
2018-01-04T13:33:33.532Z,13.10
2018-01-04T13:36:01.103Z,13.10
2018-01-04T13:38:28.638Z,13.00
2018-01-04T13:40:56.201Z,13.00
2018-01-04T13:43:24.382Z,13.00
2018-01-04T13:45:51.942Z,12.90
2018-01-04T13:48:20.045Z,13.00
2018-01-04T13:50:47.626Z,12.90
2018-01-04T13:53:15.568Z,12.90
2018-01-04T13:55:43.132Z,12.90
2018-01-04T13:58:11.955Z,12.80
2018-01-04T14:00:40.644Z,12.80
2018-01-04T14:03:08.184Z,12.90
2018-01-04T14:05:35.750Z,12.80
2018-01-04T14:08:04.753Z,12.80
2018-01-04T14:10:33.089Z,12.90
2018-01-04T14:13:00.633Z,12.90
2018-01-04T14:15:28.961Z,12.80
2018-01-04T14:17:57.219Z,12.80
2018-01-04T14:20:24.779Z,12.80
2018-01-04T14:22:53.858Z,12.70
2018-01-04T14:25:22.401Z,12.70
2018-01-04T14:27:49.948Z,12.70
2018-01-04T14:30:19.111Z,12.60
2018-01-04T14:32:46.807Z,12.60
2018-01-04T14:35:15.530Z,12.70
2018-01-04T14:37:44.577Z,12.60
2018-01-04T14:40:12.664Z,12.60
2018-01-04T14:42:40.274Z,12.60
2018-01-04T14:45:07.809Z,12.60
2018-01-04T14:47:35.841Z,12.50
2018-01-04T14:50:05.056Z,12.60
2018-01-04T14:52:34.200Z,12.60
2018-01-04T14:55:01.748Z,12.60
2018-01-04T14:57:30.068Z,12.50
2018-01-04T14:59:58.599Z,12.50
2018-01-04T15:02:26.934Z,12.60
2018-01-04T15:04:56.096Z,12.50
2018-01-04T15:07:24.928Z,12.50
2018-01-04T15:09:54.310Z,12.50
2018-01-04T15:12:22.839Z,12.50
2018-01-04T15:14:53.001Z,12.50
2018-01-04T15:17:22.366Z,12.40
2018-01-04T15:19:50.852Z,12.50
2018-01-04T15:22:22.208Z,12.50
2018-01-04T15:24:51.927Z,12.50
2018-01-04T15:27:21.033Z,12.50
2018-01-04T15:29:49.458Z,12.50
2018-01-04T15:32:17.430Z,12.50
2018-01-04T15:34:49.546Z,12.50
2018-01-04T15:37:18.527Z,12.50
2018-01-04T15:39:46.658Z,12.40
2018-01-04T15:42:15.992Z,12.40
2018-01-04T15:44:43.540Z,12.40
2018-01-04T15:47:11.098Z,12.50
2018-01-04T15:49:40.124Z,12.40
2018-01-04T15:52:08.872Z,12.40
2018-01-04T15:54:36.728Z,12.40
2018-01-04T15:57:04.301Z,12.40
2018-01-04T15:59:31.848Z,12.40
2018-01-04T16:02:01.063Z,12.40
2018-01-04T16:04:29.381Z,12.30
2018-01-04T16:06:56.925Z,12.40
2018-01-04T16:09:25.244Z,12.40
2018-01-04T16:11:53.397Z,12.40
2018-01-04T16:14:21.733Z,12.40
2018-01-04T16:16:50.137Z,12.40
2018-01-04T16:19:17.712Z,12.40
2018-01-04T16:21:45.244Z,12.50
2018-01-04T16:24:12.811Z,12.50
2018-01-04T16:26:40.365Z,12.50
2018-01-04T16:29:08.697Z,12.50
2018-01-04T16:31:36.232Z,12.50
2018-01-04T16:34:04.566Z,12.50
2018-01-04T16:36:32.103Z,12.50
2018-01-04T16:39:01.151Z,12.50
2018-01-04T16:41:29.512Z,12.50
2018-01-04T16:43:58.060Z,12.50
2018-01-04T16:46:25.591Z,12.50
2018-01-04T16:48:54.081Z,12.40
2018-01-04T16:51:22.336Z,12.40
2018-01-04T16:53:49.896Z,12.40
2018-01-04T16:56:17.424Z,12.40
2018-01-04T16:58:45.904Z,12.30
2018-01-04T17:01:13.435Z,12.30
2018-01-04T17:03:40.992Z,12.30
2018-01-04T17:06:08.532Z,12.40
2018-01-04T17:08:36.090Z,12.40
2018-01-04T17:11:05.565Z,12.40
2018-01-04T17:13:33.224Z,12.40
2018-01-04T17:16:02.845Z,12.40
2018-01-04T17:18:31.214Z,12.30
2018-01-04T17:20:59.502Z,12.40
2018-01-04T17:23:27.605Z,12.50
2018-01-04T17:25:58.848Z,12.50
2018-01-04T17:28:26.812Z,12.50
2018-01-04T17:30:54.384Z,12.50
2018-01-04T17:33:22.600Z,12.50
2018-01-04T17:35:50.165Z,12.50
2018-01-04T17:38:18.626Z,12.50
2018-01-04T17:40:47.014Z,12.60
2018-01-04T17:43:15.124Z,12.60
2018-01-04T17:45:44.691Z,12.60
2018-01-04T17:48:12.827Z,12.60
2018-01-04T17:50:42.394Z,12.60
2018-01-04T17:53:10.947Z,12.60
2018-01-04T17:55:39.340Z,12.70
2018-01-04T17:58:06.921Z,12.60
2018-01-04T18:00:35.339Z,12.70
2018-01-04T18:03:02.909Z,12.60
2018-01-04T18:05:31.108Z,12.70
2018-01-04T18:07:58.635Z,12.80
2018-01-04T18:10:27.001Z,12.80
2018-01-04T18:12:55.501Z,12.80
2018-01-04T18:15:23.105Z,12.80
2018-01-04T18:17:52.747Z,12.80
2018-01-04T18:20:21.771Z,12.80
2018-01-04T18:22:50.299Z,12.80
2018-01-04T18:25:19.838Z,12.80
2018-01-04T18:27:48.195Z,12.80
2018-01-04T18:30:16.862Z,12.80
2018-01-04T18:32:45.033Z,12.80
2018-01-04T18:35:14.082Z,12.80
2018-01-04T18:37:42.587Z,12.80
2018-01-04T18:40:10.153Z,12.80
2018-01-04T18:42:40.762Z,12.80
2018-01-04T18:45:09.298Z,12.90
2018-01-04T18:47:37.383Z,12.90
2018-01-04T18:50:05.969Z,12.90
2018-01-04T18:52:33.541Z,12.90
2018-01-04T18:55:01.774Z,13.00
2018-01-04T18:57:30.156Z,13.00
2018-01-04T18:59:58.451Z,13.00
2018-01-04T19:02:26.878Z,13.00
2018-01-04T19:04:56.433Z,13.00
2018-01-04T19:07:24.903Z,12.90
2018-01-04T19:09:54.642Z,13.00
2018-01-04T19:12:22.244Z,12.90
2018-01-04T19:14:49.832Z,12.90
2018-01-04T19:17:18.211Z,12.90
2018-01-04T19:19:45.802Z,12.90
2018-01-04T19:22:14.225Z,13.00
2018-01-04T19:24:41.825Z,13.00
2018-01-04T19:27:10.642Z,13.00
2018-01-04T19:29:38.325Z,13.00
2018-01-04T19:32:06.886Z,13.00
2018-01-04T19:34:35.116Z,13.00
2018-01-04T19:37:03.479Z,12.80
2018-01-04T19:39:31.070Z,12.90
2018-01-04T19:41:58.691Z,13.00
2018-01-04T19:44:26.287Z,12.90
2018-01-04T19:46:53.908Z,12.90
2018-01-04T19:49:22.281Z,12.90
2018-01-04T19:51:49.899Z,12.80
2018-01-04T19:54:18.453Z,12.90
2018-01-04T19:56:46.824Z,12.90
2018-01-04T19:59:17.159Z,12.90
2018-01-04T20:01:45.358Z,12.90
2018-01-04T20:04:13.659Z,12.90
2018-01-04T20:06:44.023Z,12.90
2018-01-04T20:09:13.218Z,12.80
2018-01-04T20:11:41.777Z,12.80
2018-01-04T20:14:12.756Z,12.80
2018-01-04T20:16:41.137Z,12.80
2018-01-04T20:19:08.719Z,12.80
2018-01-04T20:21:37.138Z,12.80
2018-01-04T20:24:04.731Z,12.90
2018-01-04T20:26:33.181Z,12.90
2018-01-04T20:29:01.350Z,12.90
2018-01-04T20:31:29.777Z,12.90
2018-01-04T20:33:57.394Z,12.90
2018-01-04T20:36:24.995Z,12.90
2018-01-04T20:38:53.418Z,12.90
2018-01-04T20:41:21.026Z,12.90
2018-01-04T20:43:48.625Z,12.90
2018-01-04T20:46:16.214Z,13.00
2018-01-04T20:48:44.634Z,12.80
2018-01-04T20:51:13.595Z,12.90
2018-01-04T20:53:41.200Z,12.90
2018-01-04T20:56:09.991Z,12.90
2018-01-04T20:58:37.590Z,12.90
2018-01-04T21:01:05.203Z,12.80
2018-01-04T22:25:31.420Z,12.90
2018-01-04T22:27:59.799Z,9.40
2018-01-04T22:30:27.420Z,9.40
2018-01-04T22:32:55.011Z,9.50
2018-01-04T22:35:23.427Z,9.60
2018-01-04T22:37:51.151Z,9.60
2018-01-04T22:40:22.046Z,9.60
2018-01-04T22:42:50.622Z,9.70
2018-01-04T22:45:18.252Z,9.70
2018-01-04T22:47:47.455Z,9.80
2018-01-04T22:50:16.684Z,9.80
2018-01-04T22:52:45.254Z,9.90
2018-01-04T22:55:12.887Z,9.90
2018-01-04T22:57:41.403Z,9.80
2018-01-04T23:00:09.668Z,9.90
2018-01-04T23:02:37.250Z,9.90
2018-01-04T23:05:05.820Z,9.90
2018-01-04T23:07:36.712Z,10.00
2018-01-04T23:10:04.327Z,10.00
2018-01-04T23:12:32.679Z,9.90
2018-01-04T23:15:02.726Z,9.90
2018-01-04T23:17:30.303Z,9.90
2018-01-04T23:19:59.151Z,9.80
2018-01-04T23:22:26.769Z,9.80
2018-01-04T23:24:54.345Z,9.80
2018-01-04T23:27:21.955Z,9.70
2018-01-04T23:29:50.315Z,9.70
2018-01-04T23:32:17.926Z,9.70
2018-01-04T23:34:45.612Z,9.70
2018-01-04T23:37:13.889Z,9.80
2018-01-04T23:39:41.479Z,10.00
2018-01-04T23:42:09.991Z,9.80
2018-01-04T23:44:38.801Z,9.60
2018-01-04T23:47:07.228Z,9.60
2018-01-04T23:49:34.831Z,9.50
2018-01-04T23:52:03.277Z,9.50
2018-01-04T23:54:30.867Z,9.50
2018-01-04T23:57:00.025Z,9.50
2018-01-04T23:59:28.145Z,9.40
